sensor_id;sensor_type;location;lat;lon;timestamp;P1;durP1;ratioP1;P2;durP2;ratioP2
25073;SDS011;13066;52.042;5.648;2024-02-23T00:01:12;3.67;;;1.40;;
25073;SDS011;13066;52.042;5.648;2024-02-23T00:03:40;8.30;;;1.25;;
25073;SDS011;13066;52.042;5.648;2024-02-23T00:06:08;6.38;;;1.60;;
25073;SDS011;13066;52.042;5.648;2024-02-23T00:08:37;4.45;;;1.27;;
25073;SDS011;13066;52.042;5.648;2024-02-23T00:11:06;6.00;;;1.30;;
25073;SDS011;13066;52.042;5.648;2024-02-23T00:13:35;3.47;;;1.40;;
25073;SDS011;13066;52.042;5.648;2024-02-23T00:16:03;4.40;;;1.40;;
25073;SDS011;13066;52.042;5.648;2024-02-23T00:18:31;4.85;;;1.50;;
25073;SDS011;13066;52.042;5.648;2024-02-23T00:20:59;6.53;;;1.45;;
25073;SDS011;13066;52.042;5.648;2024-02-23T00:23:27;4.40;;;1.60;;
25073;SDS011;13066;52.042;5.648;2024-02-23T00:25:56;5.55;;;1.88;;
25073;SDS011;13066;52.042;5.648;2024-02-23T00:28:25;4.97;;;1.85;;
25073;SDS011;13066;52.042;5.648;2024-02-23T00:30:53;6.35;;;1.60;;
25073;SDS011;13066;52.042;5.648;2024-02-23T00:33:22;5.15;;;1.38;;
25073;SDS011;13066;52.042;5.648;2024-02-23T00:35:50;6.68;;;1.60;;
25073;SDS011;13066;52.042;5.648;2024-02-23T00:38:18;3.65;;;1.52;;
25073;SDS011;13066;52.042;5.648;2024-02-23T00:40:46;6.93;;;2.10;;
25073;SDS011;13066;52.042;5.648;2024-02-23T00:43:14;8.07;;;1.98;;
25073;SDS011;13066;52.042;5.648;2024-02-23T00:45:43;5.85;;;1.70;;
25073;SDS011;13066;52.042;5.648;2024-02-23T00:48:11;7.70;;;1.92;;
25073;SDS011;13066;52.042;5.648;2024-02-23T00:50:40;6.07;;;1.77;;
25073;SDS011;13066;52.042;5.648;2024-02-23T00:53:08;5.10;;;1.70;;
25073;SDS011;13066;52.042;5.648;2024-02-23T00:55:36;5.55;;;1.65;;
25073;SDS011;13066;52.042;5.648;2024-02-23T00:58:04;8.25;;;1.40;;
25073;SDS011;13066;52.042;5.648;2024-02-23T01:00:33;3.88;;;1.33;;
25073;SDS011;13066;52.042;5.648;2024-02-23T01:03:02;5.28;;;1.60;;
25073;SDS011;13066;52.042;5.648;2024-02-23T01:05:31;6.85;;;1.67;;
25073;SDS011;13066;52.042;5.648;2024-02-23T01:08:00;2.58;;;1.15;;
25073;SDS011;13066;52.042;5.648;2024-02-23T01:10:28;5.68;;;1.35;;
25073;SDS011;13066;52.042;5.648;2024-02-23T01:12:56;5.20;;;1.45;;
25073;SDS011;13066;52.042;5.648;2024-02-23T01:15:24;5.05;;;1.25;;
25073;SDS011;13066;52.042;5.648;2024-02-23T01:17:52;6.60;;;1.70;;
25073;SDS011;13066;52.042;5.648;2024-02-23T01:20:22;4.30;;;1.70;;
25073;SDS011;13066;52.042;5.648;2024-02-23T01:22:49;9.02;;;2.17;;
25073;SDS011;13066;52.042;5.648;2024-02-23T01:25:17;5.85;;;1.98;;
25073;SDS011;13066;52.042;5.648;2024-02-23T01:27:45;6.93;;;1.90;;
25073;SDS011;13066;52.042;5.648;2024-02-23T01:30:14;5.53;;;2.28;;
25073;SDS011;13066;52.042;5.648;2024-02-23T01:32:42;5.70;;;2.40;;
25073;SDS011;13066;52.042;5.648;2024-02-23T01:35:11;7.57;;;2.55;;
25073;SDS011;13066;52.042;5.648;2024-02-23T01:37:40;6.88;;;2.60;;
25073;SDS011;13066;52.042;5.648;2024-02-23T01:40:08;6.47;;;2.33;;
25073;SDS011;13066;52.042;5.648;2024-02-23T01:42:36;6.65;;;2.38;;
25073;SDS011;13066;52.042;5.648;2024-02-23T01:45:05;7.50;;;2.55;;
25073;SDS011;13066;52.042;5.648;2024-02-23T01:47:33;6.88;;;2.70;;
25073;SDS011;13066;52.042;5.648;2024-02-23T01:50:02;7.63;;;2.45;;
25073;SDS011;13066;52.042;5.648;2024-02-23T01:52:30;8.32;;;2.80;;
25073;SDS011;13066;52.042;5.648;2024-02-23T01:55:00;7.28;;;2.72;;
25073;SDS011;13066;52.042;5.648;2024-02-23T01:57:31;9.68;;;3.28;;
25073;SDS011;13066;52.042;5.648;2024-02-23T02:00:16;8.13;;;2.88;;
25073;SDS011;13066;52.042;5.648;2024-02-23T02:02:53;7.05;;;2.60;;
25073;SDS011;13066;52.042;5.648;2024-02-23T02:05:22;7.00;;;2.92;;
25073;SDS011;13066;52.042;5.648;2024-02-23T02:07:50;6.20;;;2.55;;
25073;SDS011;13066;52.042;5.648;2024-02-23T02:10:22;6.63;;;2.63;;
25073;SDS011;13066;52.042;5.648;2024-02-23T02:12:50;5.70;;;2.50;;
25073;SDS011;13066;52.042;5.648;2024-02-23T02:15:19;10.48;;;2.60;;
25073;SDS011;13066;52.042;5.648;2024-02-23T02:17:48;7.95;;;2.70;;
25073;SDS011;13066;52.042;5.648;2024-02-23T02:20:16;7.68;;;2.50;;
25073;SDS011;13066;52.042;5.648;2024-02-23T02:22:46;10.07;;;2.60;;
25073;SDS011;13066;52.042;5.648;2024-02-23T02:25:14;8.82;;;2.33;;
25073;SDS011;13066;52.042;5.648;2024-02-23T02:27:43;8.95;;;2.08;;
25073;SDS011;13066;52.042;5.648;2024-02-23T02:30:12;8.23;;;2.17;;
25073;SDS011;13066;52.042;5.648;2024-02-23T02:32:40;6.13;;;2.22;;
25073;SDS011;13066;52.042;5.648;2024-02-23T02:35:10;7.57;;;2.10;;
25073;SDS011;13066;52.042;5.648;2024-02-23T02:37:38;7.82;;;2.25;;
25073;SDS011;13066;52.042;5.648;2024-02-23T02:40:07;8.02;;;2.30;;
25073;SDS011;13066;52.042;5.648;2024-02-23T02:42:36;11.55;;;2.22;;
25073;SDS011;13066;52.042;5.648;2024-02-23T02:45:05;5.47;;;1.90;;
25073;SDS011;13066;52.042;5.648;2024-02-23T02:47:34;6.40;;;1.83;;
25073;SDS011;13066;52.042;5.648;2024-02-23T02:50:03;9.30;;;2.03;;
25073;SDS011;13066;52.042;5.648;2024-02-23T02:52:33;7.45;;;2.03;;
25073;SDS011;13066;52.042;5.648;2024-02-23T02:55:01;7.75;;;1.80;;
25073;SDS011;13066;52.042;5.648;2024-02-23T02:57:29;6.30;;;1.63;;
25073;SDS011;13066;52.042;5.648;2024-02-23T02:59:57;8.60;;;1.80;;
25073;SDS011;13066;52.042;5.648;2024-02-23T03:02:27;6.53;;;1.83;;
25073;SDS011;13066;52.042;5.648;2024-02-23T03:04:55;7.43;;;1.90;;
25073;SDS011;13066;52.042;5.648;2024-02-23T03:07:23;5.53;;;1.88;;
25073;SDS011;13066;52.042;5.648;2024-02-23T03:09:53;7.45;;;1.92;;
25073;SDS011;13066;52.042;5.648;2024-02-23T03:12:22;5.57;;;2.05;;
25073;SDS011;13066;52.042;5.648;2024-02-23T03:14:50;6.32;;;1.58;;
25073;SDS011;13066;52.042;5.648;2024-02-23T03:17:18;5.38;;;1.63;;
25073;SDS011;13066;52.042;5.648;2024-02-23T03:19:47;4.47;;;1.67;;
25073;SDS011;13066;52.042;5.648;2024-02-23T03:22:17;9.68;;;2.35;;
25073;SDS011;13066;52.042;5.648;2024-02-23T03:24:44;7.35;;;1.80;;
25073;SDS011;13066;52.042;5.648;2024-02-23T03:27:12;8.95;;;2.00;;
25073;SDS011;13066;52.042;5.648;2024-02-23T03:29:41;5.68;;;1.98;;
25073;SDS011;13066;52.042;5.648;2024-02-23T03:32:09;6.03;;;1.63;;
25073;SDS011;13066;52.042;5.648;2024-02-23T03:34:37;5.88;;;1.75;;
25073;SDS011;13066;52.042;5.648;2024-02-23T03:37:06;3.75;;;1.40;;
25073;SDS011;13066;52.042;5.648;2024-02-23T03:39:34;7.63;;;1.85;;
25073;SDS011;13066;52.042;5.648;2024-02-23T03:42:03;8.30;;;1.92;;
25073;SDS011;13066;52.042;5.648;2024-02-23T03:44:32;5.63;;;1.95;;
25073;SDS011;13066;52.042;5.648;2024-02-23T03:47:00;5.90;;;1.73;;
25073;SDS011;13066;52.042;5.648;2024-02-23T03:49:28;7.90;;;2.08;;
25073;SDS011;13066;52.042;5.648;2024-02-23T03:51:56;6.75;;;2.03;;
25073;SDS011;13066;52.042;5.648;2024-02-23T03:54:25;8.23;;;2.20;;
25073;SDS011;13066;52.042;5.648;2024-02-23T03:56:53;9.32;;;2.35;;
25073;SDS011;13066;52.042;5.648;2024-02-23T03:59:21;4.97;;;2.00;;
25073;SDS011;13066;52.042;5.648;2024-02-23T04:01:50;6.53;;;1.98;;
25073;SDS011;13066;52.042;5.648;2024-02-23T04:04:18;7.28;;;2.20;;
25073;SDS011;13066;52.042;5.648;2024-02-23T04:06:46;6.32;;;2.10;;
25073;SDS011;13066;52.042;5.648;2024-02-23T04:09:14;7.47;;;2.50;;
25073;SDS011;13066;52.042;5.648;2024-02-23T04:11:43;6.05;;;2.15;;
25073;SDS011;13066;52.042;5.648;2024-02-23T04:14:11;7.00;;;1.83;;
25073;SDS011;13066;52.042;5.648;2024-02-23T04:16:39;6.22;;;2.15;;
25073;SDS011;13066;52.042;5.648;2024-02-23T04:19:08;5.95;;;2.00;;
25073;SDS011;13066;52.042;5.648;2024-02-23T04:21:39;7.75;;;1.65;;
25073;SDS011;13066;52.042;5.648;2024-02-23T04:24:07;10.68;;;2.17;;
25073;SDS011;13066;52.042;5.648;2024-02-23T04:26:35;6.57;;;2.05;;
25073;SDS011;13066;52.042;5.648;2024-02-23T04:29:04;7.88;;;2.28;;
25073;SDS011;13066;52.042;5.648;2024-02-23T04:31:35;6.72;;;2.25;;
25073;SDS011;13066;52.042;5.648;2024-02-23T04:34:04;6.75;;;2.00;;
25073;SDS011;13066;52.042;5.648;2024-02-23T04:36:32;8.55;;;2.20;;
25073;SDS011;13066;52.042;5.648;2024-02-23T04:39:00;5.50;;;2.47;;
25073;SDS011;13066;52.042;5.648;2024-02-23T04:41:29;6.32;;;2.33;;
25073;SDS011;13066;52.042;5.648;2024-02-23T04:43:57;8.82;;;2.17;;
25073;SDS011;13066;52.042;5.648;2024-02-23T04:46:30;8.57;;;2.13;;
25073;SDS011;13066;52.042;5.648;2024-02-23T04:48:58;5.85;;;2.13;;
25073;SDS011;13066;52.042;5.648;2024-02-23T04:51:26;6.22;;;2.10;;
25073;SDS011;13066;52.042;5.648;2024-02-23T04:53:54;8.23;;;2.30;;
25073;SDS011;13066;52.042;5.648;2024-02-23T04:56:22;8.40;;;2.30;;
25073;SDS011;13066;52.042;5.648;2024-02-23T04:58:50;10.50;;;2.70;;
25073;SDS011;13066;52.042;5.648;2024-02-23T05:01:19;6.22;;;2.20;;
25073;SDS011;13066;52.042;5.648;2024-02-23T05:03:48;7.25;;;2.28;;
25073;SDS011;13066;52.042;5.648;2024-02-23T05:06:16;8.60;;;2.47;;
25073;SDS011;13066;52.042;5.648;2024-02-23T05:08:44;12.55;;;2.58;;
25073;SDS011;13066;52.042;5.648;2024-02-23T05:11:14;7.90;;;2.20;;
25073;SDS011;13066;52.042;5.648;2024-02-23T05:13:42;6.20;;;2.10;;
25073;SDS011;13066;52.042;5.648;2024-02-23T05:16:11;9.38;;;2.28;;
25073;SDS011;13066;52.042;5.648;2024-02-23T05:18:39;9.88;;;2.20;;
25073;SDS011;13066;52.042;5.648;2024-02-23T05:21:09;7.15;;;2.28;;
25073;SDS011;13066;52.042;5.648;2024-02-23T05:23:37;8.20;;;2.33;;
25073;SDS011;13066;52.042;5.648;2024-02-23T05:26:05;5.78;;;2.10;;
25073;SDS011;13066;52.042;5.648;2024-02-23T05:28:34;8.90;;;2.53;;
25073;SDS011;13066;52.042;5.648;2024-02-23T05:31:02;6.55;;;1.90;;
25073;SDS011;13066;52.042;5.648;2024-02-23T05:33:31;7.35;;;1.92;;
25073;SDS011;13066;52.042;5.648;2024-02-23T05:35:59;6.40;;;2.03;;
25073;SDS011;13066;52.042;5.648;2024-02-23T05:38:28;9.85;;;2.25;;
25073;SDS011;13066;52.042;5.648;2024-02-23T05:40:57;6.65;;;2.00;;
25073;SDS011;13066;52.042;5.648;2024-02-23T05:43:25;5.82;;;1.88;;
25073;SDS011;13066;52.042;5.648;2024-02-23T05:45:53;6.63;;;2.47;;
25073;SDS011;13066;52.042;5.648;2024-02-23T05:48:23;6.13;;;2.15;;
25073;SDS011;13066;52.042;5.648;2024-02-23T05:50:51;11.38;;;2.40;;
25073;SDS011;13066;52.042;5.648;2024-02-23T05:53:20;8.18;;;2.30;;
25073;SDS011;13066;52.042;5.648;2024-02-23T05:55:49;7.30;;;1.90;;
25073;SDS011;13066;52.042;5.648;2024-02-23T05:58:17;8.35;;;1.90;;
25073;SDS011;13066;52.042;5.648;2024-02-23T06:00:47;6.28;;;2.00;;
25073;SDS011;13066;52.042;5.648;2024-02-23T06:03:16;7.75;;;2.03;;
25073;SDS011;13066;52.042;5.648;2024-02-23T06:05:45;8.85;;;2.10;;
25073;SDS011;13066;52.042;5.648;2024-02-23T06:08:13;8.85;;;2.00;;
25073;SDS011;13066;52.042;5.648;2024-02-23T06:10:41;6.13;;;2.13;;
25073;SDS011;13066;52.042;5.648;2024-02-23T06:13:11;4.65;;;1.80;;
25073;SDS011;13066;52.042;5.648;2024-02-23T06:15:39;6.10;;;1.73;;
25073;SDS011;13066;52.042;5.648;2024-02-23T06:18:08;4.60;;;1.85;;
25073;SDS011;13066;52.042;5.648;2024-02-23T06:20:36;5.57;;;1.77;;
25073;SDS011;13066;52.042;5.648;2024-02-23T06:23:04;7.40;;;2.03;;
25073;SDS011;13066;52.042;5.648;2024-02-23T06:25:32;8.30;;;2.00;;
25073;SDS011;13066;52.042;5.648;2024-02-23T06:28:01;5.38;;;1.90;;
25073;SDS011;13066;52.042;5.648;2024-02-23T06:30:30;5.35;;;2.13;;
25073;SDS011;13066;52.042;5.648;2024-02-23T06:32:58;9.18;;;2.13;;
25073;SDS011;13066;52.042;5.648;2024-02-23T06:35:27;7.43;;;2.00;;
25073;SDS011;13066;52.042;5.648;2024-02-23T06:37:55;4.93;;;1.70;;
25073;SDS011;13066;52.042;5.648;2024-02-23T06:40:23;8.05;;;2.28;;
25073;SDS011;13066;52.042;5.648;2024-02-23T06:42:59;6.07;;;2.08;;
25073;SDS011;13066;52.042;5.648;2024-02-23T06:45:27;4.80;;;2.15;;
25073;SDS011;13066;52.042;5.648;2024-02-23T06:47:56;7.28;;;2.33;;
25073;SDS011;13066;52.042;5.648;2024-02-23T06:50:25;8.38;;;2.42;;
25073;SDS011;13066;52.042;5.648;2024-02-23T06:52:53;7.50;;;2.42;;
25073;SDS011;13066;52.042;5.648;2024-02-23T06:55:21;5.80;;;2.03;;
25073;SDS011;13066;52.042;5.648;2024-02-23T06:57:49;6.40;;;2.08;;
25073;SDS011;13066;52.042;5.648;2024-02-23T07:00:17;8.25;;;2.13;;
25073;SDS011;13066;52.042;5.648;2024-02-23T07:02:46;6.85;;;2.33;;
25073;SDS011;13066;52.042;5.648;2024-02-23T07:05:15;8.20;;;2.22;;
25073;SDS011;13066;52.042;5.648;2024-02-23T07:07:43;6.90;;;2.05;;
25073;SDS011;13066;52.042;5.648;2024-02-23T07:10:11;8.00;;;1.95;;
25073;SDS011;13066;52.042;5.648;2024-02-23T07:12:39;7.93;;;2.15;;
25073;SDS011;13066;52.042;5.648;2024-02-23T07:15:09;4.57;;;1.67;;
25073;SDS011;13066;52.042;5.648;2024-02-23T07:17:37;7.47;;;2.17;;
25073;SDS011;13066;52.042;5.648;2024-02-23T07:20:06;9.63;;;2.55;;
25073;SDS011;13066;52.042;5.648;2024-02-23T07:22:36;4.93;;;2.13;;
25073;SDS011;13066;52.042;5.648;2024-02-23T07:25:04;5.00;;;2.15;;
25073;SDS011;13066;52.042;5.648;2024-02-23T07:27:32;5.45;;;1.80;;
25073;SDS011;13066;52.042;5.648;2024-02-23T07:30:00;6.40;;;2.25;;
25073;SDS011;13066;52.042;5.648;2024-02-23T07:32:29;6.03;;;2.13;;
25073;SDS011;13066;52.042;5.648;2024-02-23T07:34:57;8.52;;;2.63;;
25073;SDS011;13066;52.042;5.648;2024-02-23T07:37:26;5.70;;;1.90;;
25073;SDS011;13066;52.042;5.648;2024-02-23T07:39:55;11.20;;;2.38;;
25073;SDS011;13066;52.042;5.648;2024-02-23T07:42:23;5.70;;;1.98;;
25073;SDS011;13066;52.042;5.648;2024-02-23T07:44:51;10.57;;;2.20;;
25073;SDS011;13066;52.042;5.648;2024-02-23T07:47:19;5.22;;;2.00;;
25073;SDS011;13066;52.042;5.648;2024-02-23T07:49:47;8.63;;;2.10;;
25073;SDS011;13066;52.042;5.648;2024-02-23T07:52:15;7.68;;;2.13;;
25073;SDS011;13066;52.042;5.648;2024-02-23T07:54:43;6.75;;;2.33;;
25073;SDS011;13066;52.042;5.648;2024-02-23T07:57:12;5.88;;;1.80;;
25073;SDS011;13066;52.042;5.648;2024-02-23T07:59:43;9.07;;;2.20;;
25073;SDS011;13066;52.042;5.648;2024-02-23T08:02:11;4.97;;;1.77;;
25073;SDS011;13066;52.042;5.648;2024-02-23T08:04:49;7.32;;;1.92;;
25073;SDS011;13066;52.042;5.648;2024-02-23T08:07:19;5.43;;;1.95;;
25073;SDS011;13066;52.042;5.648;2024-02-23T08:09:47;5.30;;;1.60;;
25073;SDS011;13066;52.042;5.648;2024-02-23T08:12:16;7.28;;;1.85;;
25073;SDS011;13066;52.042;5.648;2024-02-23T08:14:45;9.45;;;2.05;;
25073;SDS011;13066;52.042;5.648;2024-02-23T08:17:15;6.97;;;2.08;;
25073;SDS011;13066;52.042;5.648;2024-02-23T08:19:43;7.65;;;2.13;;
25073;SDS011;13066;52.042;5.648;2024-02-23T08:22:11;6.78;;;2.15;;
25073;SDS011;13066;52.042;5.648;2024-02-23T08:24:39;6.97;;;2.17;;
25073;SDS011;13066;52.042;5.648;2024-02-23T08:27:07;8.20;;;1.98;;
25073;SDS011;13066;52.042;5.648;2024-02-23T08:29:38;6.38;;;1.98;;
25073;SDS011;13066;52.042;5.648;2024-02-23T08:32:08;7.68;;;2.00;;
25073;SDS011;13066;52.042;5.648;2024-02-23T08:34:36;6.63;;;2.25;;
25073;SDS011;13066;52.042;5.648;2024-02-23T08:37:04;9.82;;;2.33;;
25073;SDS011;13066;52.042;5.648;2024-02-23T08:39:32;7.05;;;2.10;;
25073;SDS011;13066;52.042;5.648;2024-02-23T08:42:00;10.57;;;2.80;;
25073;SDS011;13066;52.042;5.648;2024-02-23T08:44:28;7.03;;;2.38;;
25073;SDS011;13066;52.042;5.648;2024-02-23T08:46:58;8.45;;;2.15;;
25073;SDS011;13066;52.042;5.648;2024-02-23T08:49:26;6.70;;;2.08;;
25073;SDS011;13066;52.042;5.648;2024-02-23T08:51:54;5.57;;;1.65;;
25073;SDS011;13066;52.042;5.648;2024-02-23T08:54:24;5.38;;;1.88;;
25073;SDS011;13066;52.042;5.648;2024-02-23T08:56:53;9.90;;;2.10;;
25073;SDS011;13066;52.042;5.648;2024-02-23T08:59:21;9.20;;;2.60;;
25073;SDS011;13066;52.042;5.648;2024-02-23T09:01:49;10.38;;;2.13;;
25073;SDS011;13066;52.042;5.648;2024-02-23T09:04:19;8.57;;;2.08;;
25073;SDS011;13066;52.042;5.648;2024-02-23T09:06:47;7.75;;;1.80;;
25073;SDS011;13066;52.042;5.648;2024-02-23T09:09:16;5.28;;;2.00;;
25073;SDS011;13066;52.042;5.648;2024-02-23T09:11:45;7.35;;;2.28;;
25073;SDS011;13066;52.042;5.648;2024-02-23T09:14:13;8.25;;;1.85;;
25073;SDS011;13066;52.042;5.648;2024-02-23T09:16:41;8.63;;;2.08;;
25073;SDS011;13066;52.042;5.648;2024-02-23T09:19:09;4.63;;;1.60;;
25073;SDS011;13066;52.042;5.648;2024-02-23T09:21:39;7.30;;;2.25;;
25073;SDS011;13066;52.042;5.648;2024-02-23T09:24:07;6.60;;;2.20;;
25073;SDS011;13066;52.042;5.648;2024-02-23T09:26:35;9.68;;;2.67;;
25073;SDS011;13066;52.042;5.648;2024-02-23T09:29:04;6.82;;;2.33;;
25073;SDS011;13066;52.042;5.648;2024-02-23T09:31:32;7.00;;;2.10;;
25073;SDS011;13066;52.042;5.648;2024-02-23T09:34:00;7.00;;;2.30;;
25073;SDS011;13066;52.042;5.648;2024-02-23T09:36:29;8.18;;;2.33;;
25073;SDS011;13066;52.042;5.648;2024-02-23T09:38:59;8.18;;;2.00;;
25073;SDS011;13066;52.042;5.648;2024-02-23T09:41:29;6.80;;;2.40;;
25073;SDS011;13066;52.042;5.648;2024-02-23T09:43:57;8.48;;;2.30;;
25073;SDS011;13066;52.042;5.648;2024-02-23T09:46:26;8.27;;;1.92;;
25073;SDS011;13066;52.042;5.648;2024-02-23T09:48:54;6.50;;;2.10;;
25073;SDS011;13066;52.042;5.648;2024-02-23T09:51:23;5.00;;;1.52;;
25073;SDS011;13066;52.042;5.648;2024-02-23T09:53:51;7.38;;;1.92;;
25073;SDS011;13066;52.042;5.648;2024-02-23T09:56:21;4.93;;;1.70;;
25073;SDS011;13066;52.042;5.648;2024-02-23T09:58:50;8.82;;;2.25;;
25073;SDS011;13066;52.042;5.648;2024-02-23T10:01:19;6.50;;;2.50;;
25073;SDS011;13066;52.042;5.648;2024-02-23T10:03:53;8.32;;;2.30;;
25073;SDS011;13066;52.042;5.648;2024-02-23T10:06:22;11.25;;;2.35;;
25073;SDS011;13066;52.042;5.648;2024-02-23T10:08:50;5.45;;;1.90;;
25073;SDS011;13066;52.042;5.648;2024-02-23T10:11:20;6.72;;;2.13;;
25073;SDS011;13066;52.042;5.648;2024-02-23T10:13:50;7.88;;;2.08;;
25073;SDS011;13066;52.042;5.648;2024-02-23T10:16:18;5.85;;;2.00;;
25073;SDS011;13066;52.042;5.648;2024-02-23T10:18:47;7.85;;;2.17;;
25073;SDS011;13066;52.042;5.648;2024-02-23T10:21:16;6.57;;;1.70;;
25073;SDS011;13066;52.042;5.648;2024-02-23T10:23:44;7.18;;;2.30;;
25073;SDS011;13066;52.042;5.648;2024-02-23T10:26:13;5.03;;;1.80;;
25073;SDS011;13066;52.042;5.648;2024-02-23T10:28:46;10.20;;;2.33;;
25073;SDS011;13066;52.042;5.648;2024-02-23T10:31:14;5.95;;;1.85;;
25073;SDS011;13066;52.042;5.648;2024-02-23T10:33:43;5.35;;;2.15;;
25073;SDS011;13066;52.042;5.648;2024-02-23T10:36:15;5.35;;;2.55;;
25073;SDS011;13066;52.042;5.648;2024-02-23T10:38:44;6.03;;;2.08;;
25073;SDS011;13066;52.042;5.648;2024-02-23T10:41:14;6.55;;;2.17;;
25073;SDS011;13066;52.042;5.648;2024-02-23T10:43:43;5.32;;;1.60;;
25073;SDS011;13066;52.042;5.648;2024-02-23T10:46:13;7.32;;;2.22;;
25073;SDS011;13066;52.042;5.648;2024-02-23T10:48:43;6.32;;;1.88;;
25073;SDS011;13066;52.042;5.648;2024-02-23T10:51:13;7.72;;;2.13;;
25073;SDS011;13066;52.042;5.648;2024-02-23T10:53:46;4.97;;;1.77;;
25073;SDS011;13066;52.042;5.648;2024-02-23T10:56:16;5.72;;;1.88;;
25073;SDS011;13066;52.042;5.648;2024-02-23T10:58:46;5.82;;;2.13;;
25073;SDS011;13066;52.042;5.648;2024-02-23T11:01:14;7.95;;;1.92;;
25073;SDS011;13066;52.042;5.648;2024-02-23T11:03:43;3.92;;;1.77;;
25073;SDS011;13066;52.042;5.648;2024-02-23T11:06:16;5.78;;;2.08;;
25073;SDS011;13066;52.042;5.648;2024-02-23T11:08:48;3.92;;;1.90;;
25073;SDS011;13066;52.042;5.648;2024-02-23T11:11:17;4.20;;;1.48;;
25073;SDS011;13066;52.042;5.648;2024-02-23T11:13:47;4.45;;;1.73;;
25073;SDS011;13066;52.042;5.648;2024-02-23T11:16:21;4.05;;;1.60;;
25073;SDS011;13066;52.042;5.648;2024-02-23T11:19:03;6.53;;;1.98;;
25073;SDS011;13066;52.042;5.648;2024-02-23T11:21:35;5.68;;;1.75;;
25073;SDS011;13066;52.042;5.648;2024-02-23T11:24:05;5.05;;;1.80;;
25073;SDS011;13066;52.042;5.648;2024-02-23T11:26:36;5.05;;;1.95;;
25073;SDS011;13066;52.042;5.648;2024-02-23T11:29:11;5.93;;;2.00;;
25073;SDS011;13066;52.042;5.648;2024-02-23T11:31:44;6.30;;;1.58;;
25073;SDS011;13066;52.042;5.648;2024-02-23T11:34:13;7.57;;;2.00;;
25073;SDS011;13066;52.042;5.648;2024-02-23T11:36:50;4.82;;;2.00;;
25073;SDS011;13066;52.042;5.648;2024-02-23T11:39:19;4.88;;;2.05;;
25073;SDS011;13066;52.042;5.648;2024-02-23T11:41:47;8.38;;;1.77;;
25073;SDS011;13066;52.042;5.648;2024-02-23T11:44:17;4.65;;;1.85;;
25073;SDS011;13066;52.042;5.648;2024-02-23T11:46:46;4.60;;;2.10;;
25073;SDS011;13066;52.042;5.648;2024-02-23T11:49:14;3.80;;;1.95;;
25073;SDS011;13066;52.042;5.648;2024-02-23T11:51:42;6.97;;;2.15;;
25073;SDS011;13066;52.042;5.648;2024-02-23T11:54:11;6.00;;;2.50;;
25073;SDS011;13066;52.042;5.648;2024-02-23T11:56:40;5.88;;;2.03;;
25073;SDS011;13066;52.042;5.648;2024-02-23T11:59:08;4.13;;;1.70;;
25073;SDS011;13066;52.042;5.648;2024-02-23T12:01:38;5.97;;;2.03;;
25073;SDS011;13066;52.042;5.648;2024-02-23T12:04:06;6.18;;;2.58;;
25073;SDS011;13066;52.042;5.648;2024-02-23T12:06:35;6.22;;;2.30;;
25073;SDS011;13066;52.042;5.648;2024-02-23T12:09:03;7.03;;;3.53;;
25073;SDS011;13066;52.042;5.648;2024-02-23T12:11:32;7.05;;;3.25;;
25073;SDS011;13066;52.042;5.648;2024-02-23T12:14:00;8.75;;;3.60;;
25073;SDS011;13066;52.042;5.648;2024-02-23T12:16:29;5.80;;;2.58;;
25073;SDS011;13066;52.042;5.648;2024-02-23T12:18:58;4.45;;;1.95;;
25073;SDS011;13066;52.042;5.648;2024-02-23T12:21:29;5.28;;;1.90;;
25073;SDS011;13066;52.042;5.648;2024-02-23T12:23:57;4.85;;;1.77;;
25073;SDS011;13066;52.042;5.648;2024-02-23T12:26:25;3.33;;;1.50;;
25073;SDS011;13066;52.042;5.648;2024-02-23T12:28:59;4.65;;;1.50;;
25073;SDS011;13066;52.042;5.648;2024-02-23T12:31:30;4.00;;;1.73;;
25073;SDS011;13066;52.042;5.648;2024-02-23T12:34:00;6.82;;;2.03;;
25073;SDS011;13066;52.042;5.648;2024-02-23T12:36:28;3.92;;;2.10;;
25073;SDS011;13066;52.042;5.648;2024-02-23T12:38:57;5.65;;;1.70;;
25073;SDS011;13066;52.042;5.648;2024-02-23T12:41:25;3.50;;;1.50;;
25073;SDS011;13066;52.042;5.648;2024-02-23T12:43:53;3.25;;;1.50;;
25073;SDS011;13066;52.042;5.648;2024-02-23T12:46:21;3.22;;;1.77;;
25073;SDS011;13066;52.042;5.648;2024-02-23T12:48:50;4.10;;;2.15;;
25073;SDS011;13066;52.042;5.648;2024-02-23T12:51:20;4.30;;;1.45;;
25073;SDS011;13066;52.042;5.648;2024-02-23T12:53:53;6.72;;;1.67;;
25073;SDS011;13066;52.042;5.648;2024-02-23T12:56:20;3.38;;;1.58;;
25073;SDS011;13066;52.042;5.648;2024-02-23T12:58:49;5.22;;;1.90;;
25073;SDS011;13066;52.042;5.648;2024-02-23T13:01:17;4.10;;;1.90;;
25073;SDS011;13066;52.042;5.648;2024-02-23T13:03:45;4.05;;;1.65;;
25073;SDS011;13066;52.042;5.648;2024-02-23T13:06:13;4.53;;;1.40;;
25073;SDS011;13066;52.042;5.648;2024-02-23T13:08:43;5.53;;;1.67;;
25073;SDS011;13066;52.042;5.648;2024-02-23T13:11:11;3.42;;;1.38;;
25073;SDS011;13066;52.042;5.648;2024-02-23T13:13:39;3.55;;;1.40;;
25073;SDS011;13066;52.042;5.648;2024-02-23T13:16:09;3.00;;;1.00;;
25073;SDS011;13066;52.042;5.648;2024-02-23T13:18:38;4.45;;;1.58;;
25073;SDS011;13066;52.042;5.648;2024-02-23T13:21:07;2.75;;;1.40;;
25073;SDS011;13066;52.042;5.648;2024-02-23T13:23:35;5.00;;;1.23;;
25073;SDS011;13066;52.042;5.648;2024-02-23T13:26:06;5.45;;;1.52;;
25073;SDS011;13066;52.042;5.648;2024-02-23T13:28:36;5.13;;;1.73;;
25073;SDS011;13066;52.042;5.648;2024-02-23T13:31:04;3.72;;;1.60;;
25073;SDS011;13066;52.042;5.648;2024-02-23T13:33:32;4.13;;;1.40;;
25073;SDS011;13066;52.042;5.648;2024-02-23T13:36:01;3.08;;;1.30;;
25073;SDS011;13066;52.042;5.648;2024-02-23T13:38:29;3.25;;;1.40;;
25073;SDS011;13066;52.042;5.648;2024-02-23T13:40:57;3.22;;;1.13;;
25073;SDS011;13066;52.042;5.648;2024-02-23T13:43:27;5.97;;;1.60;;
25073;SDS011;13066;52.042;5.648;2024-02-23T13:45:55;4.32;;;1.77;;
25073;SDS011;13066;52.042;5.648;2024-02-23T13:48:23;4.82;;;1.65;;
25073;SDS011;13066;52.042;5.648;2024-02-23T13:50:51;3.33;;;1.85;;
25073;SDS011;13066;52.042;5.648;2024-02-23T13:53:19;5.28;;;1.70;;
25073;SDS011;13066;52.042;5.648;2024-02-23T13:55:47;2.80;;;1.30;;
25073;SDS011;13066;52.042;5.648;2024-02-23T13:58:16;4.30;;;1.35;;
25073;SDS011;13066;52.042;5.648;2024-02-23T14:00:46;4.80;;;1.52;;
25073;SDS011;13066;52.042;5.648;2024-02-23T14:03:15;4.20;;;1.40;;
25073;SDS011;13066;52.042;5.648;2024-02-23T14:05:45;3.45;;;1.27;;
25073;SDS011;13066;52.042;5.648;2024-02-23T14:08:14;4.78;;;1.38;;
25073;SDS011;13066;52.042;5.648;2024-02-23T14:10:42;5.40;;;2.60;;
25073;SDS011;13066;52.042;5.648;2024-02-23T14:13:10;4.95;;;1.70;;
25073;SDS011;13066;52.042;5.648;2024-02-23T14:15:39;4.47;;;1.60;;
25073;SDS011;13066;52.042;5.648;2024-02-23T14:18:08;5.45;;;1.95;;
25073;SDS011;13066;52.042;5.648;2024-02-23T14:20:36;4.25;;;1.98;;
25073;SDS011;13066;52.042;5.648;2024-02-23T14:23:04;4.25;;;2.15;;
25073;SDS011;13066;52.042;5.648;2024-02-23T14:25:32;4.43;;;2.00;;
25073;SDS011;13066;52.042;5.648;2024-02-23T14:28:00;5.55;;;2.03;;
25073;SDS011;13066;52.042;5.648;2024-02-23T14:30:28;3.75;;;1.80;;
25073;SDS011;13066;52.042;5.648;2024-02-23T14:32:56;2.83;;;1.50;;
25073;SDS011;13066;52.042;5.648;2024-02-23T14:35:26;3.67;;;1.85;;
25073;SDS011;13066;52.042;5.648;2024-02-23T14:37:54;4.18;;;1.75;;
25073;SDS011;13066;52.042;5.648;2024-02-23T14:40:22;3.63;;;1.73;;
25073;SDS011;13066;52.042;5.648;2024-02-23T14:42:50;3.92;;;1.90;;
25073;SDS011;13066;52.042;5.648;2024-02-23T14:45:18;2.90;;;1.75;;
25073;SDS011;13066;52.042;5.648;2024-02-23T14:47:49;8.38;;;3.22;;
25073;SDS011;13066;52.042;5.648;2024-02-23T14:50:17;7.88;;;3.58;;
25073;SDS011;13066;52.042;5.648;2024-02-23T14:52:47;7.97;;;2.67;;
25073;SDS011;13066;52.042;5.648;2024-02-23T14:55:15;4.22;;;1.92;;
25073;SDS011;13066;52.042;5.648;2024-02-23T14:57:43;4.05;;;1.85;;